createdAt,value
2023-02-26T00:00:01.880Z,2.60
2023-02-26T00:05:09.393Z,2.70
2023-02-26T00:10:16.658Z,2.30
2023-02-26T00:15:23.930Z,2.90
2023-02-26T00:20:30.666Z,3.10
2023-02-26T00:25:36.563Z,3.00
2023-02-26T00:30:43.896Z,3.30
2023-02-26T00:35:54.475Z,3.70
2023-02-26T00:41:01.069Z,3.10
2023-02-26T00:46:21.112Z,3.00
2023-02-26T00:51:31.982Z,3.00
2023-02-26T00:56:37.742Z,3.20
2023-02-26T01:01:43.854Z,3.00
2023-02-26T01:06:52.750Z,2.50
2023-02-26T01:12:02.724Z,2.90
2023-02-26T01:17:15.336Z,2.90
2023-02-26T01:22:23.920Z,2.50
2023-02-26T01:27:30.117Z,3.20
2023-02-26T01:32:45.220Z,2.50
2023-02-26T01:37:57.603Z,2.70
2023-02-26T01:43:08.006Z,2.90
2023-02-26T01:48:26.990Z,3.50
2023-02-26T01:53:34.305Z,3.40
2023-02-26T01:58:40.575Z,2.90
2023-02-26T02:03:47.189Z,2.40
2023-02-26T02:08:53.177Z,3.40
2023-02-26T02:14:10.896Z,3.30
2023-02-26T02:19:34.379Z,3.40
2023-02-26T02:24:51.380Z,4.20
2023-02-26T02:30:11.094Z,3.40
2023-02-26T02:35:21.634Z,3.30
2023-02-26T02:40:32.333Z,3.30
2023-02-26T02:45:42.658Z,4.10
2023-02-26T02:50:52.191Z,3.50
2023-02-26T02:56:04.849Z,3.40
2023-02-26T03:01:15.477Z,4.10
2023-02-26T03:06:22.016Z,3.60
2023-02-26T03:11:29.131Z,4.00
2023-02-26T03:16:49.652Z,3.10
2023-02-26T03:22:02.420Z,3.00
2023-02-26T03:27:34.913Z,3.00
2023-02-26T03:32:50.502Z,3.00
2023-02-26T03:38:02.057Z,2.40
2023-02-26T03:43:14.736Z,2.40
2023-02-26T03:48:25.009Z,2.40
2023-02-26T03:53:36.527Z,2.20
2023-02-26T03:58:50.101Z,1.90
2023-02-26T04:04:15.185Z,2.40
2023-02-26T04:09:21.977Z,2.50
2023-02-26T04:14:28.575Z,2.70
2023-02-26T04:19:34.577Z,3.10
2023-02-26T04:24:40.948Z,2.90
2023-02-26T04:29:47.322Z,2.90
2023-02-26T04:34:53.208Z,3.10
2023-02-26T04:39:59.814Z,3.00
2023-02-26T04:45:07.482Z,3.10
2023-02-26T04:50:15.428Z,2.30
2023-02-26T04:55:23.564Z,2.00
2023-02-26T05:00:29.860Z,2.40
2023-02-26T05:05:36.973Z,2.50
2023-02-26T05:10:43.595Z,1.90
2023-02-26T05:15:49.332Z,3.10
2023-02-26T05:20:56.875Z,2.60
2023-02-26T05:26:03.131Z,2.30
2023-02-26T05:31:09.837Z,2.80
2023-02-26T05:36:15.660Z,2.70
2023-02-26T05:41:21.692Z,2.70
2023-02-26T05:46:28.076Z,2.40
2023-02-26T05:51:34.241Z,2.10
2023-02-26T05:56:39.870Z,2.00
2023-02-26T06:01:45.584Z,1.80
2023-02-26T06:06:51.582Z,2.10
2023-02-26T06:11:57.614Z,2.10
2023-02-26T06:17:04.420Z,2.00
2023-02-26T06:22:11.316Z,2.20
2023-02-26T06:27:17.452Z,2.40
2023-02-26T06:32:23.266Z,1.80
2023-02-26T06:37:29.073Z,2.10
2023-02-26T06:42:34.959Z,2.40
2023-02-26T06:47:40.825Z,2.30
2023-02-26T06:52:46.413Z,1.90
2023-02-26T06:57:53.188Z,2.30
2023-02-26T07:02:59.478Z,3.30
2023-02-26T07:08:06.988Z,2.70
2023-02-26T07:13:13.492Z,2.20
2023-02-26T07:18:19.514Z,2.50
2023-02-26T07:23:25.448Z,1.80
2023-02-26T07:28:31.634Z,2.40
2023-02-26T07:33:38.717Z,2.30
2023-02-26T07:38:44.395Z,2.40
2023-02-26T07:43:50.633Z,3.20
2023-02-26T07:48:56.365Z,3.80
2023-02-26T07:54:03.268Z,4.20
2023-02-26T07:59:10.007Z,4.60
2023-02-26T08:04:16.251Z,7.30
2023-02-26T08:09:22.421Z,5.30
2023-02-26T08:14:28.290Z,2.70
2023-02-26T08:19:34.998Z,3.80
2023-02-26T08:24:41.887Z,3.50
2023-02-26T08:29:50.434Z,3.60
2023-02-26T08:34:57.362Z,3.80
2023-02-26T08:40:04.143Z,2.20
2023-02-26T08:45:11.781Z,4.00
2023-02-26T08:50:18.046Z,3.40
2023-02-26T08:55:24.142Z,7.00
2023-02-26T09:00:30.558Z,3.70
2023-02-26T09:05:36.762Z,3.50
2023-02-26T09:10:43.373Z,5.70
2023-02-26T09:15:50.618Z,4.40
2023-02-26T09:20:57.029Z,4.30
2023-02-26T09:26:02.803Z,3.20
2023-02-26T09:31:09.045Z,4.50
2023-02-26T09:36:15.232Z,7.30
2023-02-26T09:41:26.537Z,3.80
2023-02-26T09:46:40.893Z,2.20
2023-02-26T09:51:50.656Z,5.20
2023-02-26T09:57:00.223Z,2.80
2023-02-26T10:02:17.102Z,2.40
2023-02-26T10:07:35.170Z,3.50
2023-02-26T10:12:44.869Z,5.90
2023-02-26T10:18:03.186Z,8.40
2023-02-26T10:23:24.195Z,3.70
2023-02-26T10:33:58.178Z,3.10
2023-02-26T10:39:13.614Z,3.10
2023-02-26T10:44:25.098Z,2.90
2023-02-26T10:49:54.680Z,2.70
2023-02-26T10:55:16.003Z,6.70
2023-02-26T11:00:23.312Z,4.40
2023-02-26T11:05:31.172Z,15.50
2023-02-26T11:10:44.867Z,18.20
2023-02-26T11:15:53.746Z,10.10
2023-02-26T11:21:01.034Z,7.40
2023-02-26T11:26:14.438Z,4.30
2023-02-26T11:31:23.843Z,4.20
2023-02-26T11:36:34.852Z,53.70
2023-02-26T11:41:42.295Z,4.90
2023-02-26T11:46:55.298Z,2.70
2023-02-26T11:52:17.007Z,2.30
2023-02-26T11:57:29.184Z,2.60
2023-02-26T12:02:40.248Z,2.20
2023-02-26T12:07:48.831Z,5.90
2023-02-26T12:13:08.494Z,2.90
2023-02-26T12:18:37.683Z,2.20
2023-02-26T12:24:19.042Z,2.90
2023-02-26T12:29:48.821Z,2.50
2023-02-26T12:35:18.964Z,2.10
2023-02-26T12:40:50.852Z,2.60
2023-02-26T12:46:06.968Z,2.60
2023-02-26T12:51:26.199Z,3.00
2023-02-26T12:56:56.925Z,1.70
2023-02-26T13:02:38.355Z,2.10
2023-02-26T13:08:18.705Z,2.20
2023-02-26T13:13:51.924Z,2.50
2023-02-26T13:19:08.126Z,2.10
2023-02-26T13:24:19.454Z,2.50
2023-02-26T13:34:40.696Z,2.60
2023-02-26T13:39:54.173Z,4.60
2023-02-26T13:45:18.699Z,3.30
2023-02-26T13:50:33.165Z,4.30
2023-02-26T13:55:43.622Z,4.80
2023-02-26T14:01:04.323Z,3.20
2023-02-26T14:06:25.901Z,3.90
2023-02-26T14:12:01.271Z,4.40
2023-02-26T14:17:31.913Z,4.20
2023-02-26T14:22:43.275Z,4.40
2023-02-26T14:27:50.185Z,4.40
2023-02-26T14:33:19.412Z,2.80
2023-02-26T14:38:28.716Z,4.30
2023-02-26T14:43:39.745Z,3.00
2023-02-26T14:48:46.908Z,4.40
2023-02-26T14:54:10.223Z,4.70
2023-02-26T14:59:33.457Z,11.90
2023-02-26T15:05:12.213Z,6.00
2023-02-26T15:10:31.237Z,4.80
2023-02-26T15:15:45.676Z,4.40
2023-02-26T15:21:03.843Z,8.70
2023-02-26T15:26:17.961Z,10.00
2023-02-26T15:31:32.022Z,9.70
2023-02-26T15:36:43.220Z,10.10
2023-02-26T15:41:51.191Z,9.10
2023-02-26T15:47:01.281Z,7.90
2023-02-26T15:52:11.032Z,7.50
2023-02-26T15:57:18.603Z,7.80
2023-02-26T16:02:30.719Z,9.80
2023-02-26T16:07:36.691Z,10.30
2023-02-26T16:12:49.188Z,8.90
2023-02-26T16:17:58.664Z,7.70
2023-02-26T16:23:07.465Z,7.80
2023-02-26T16:28:19.179Z,6.90
2023-02-26T16:33:26.761Z,6.70
2023-02-26T16:38:44.263Z,6.10
2023-02-26T16:43:58.001Z,6.30
2023-02-26T16:49:10.616Z,5.00
2023-02-26T16:54:22.775Z,5.80
2023-02-26T16:59:32.773Z,5.60
2023-02-26T17:04:39.407Z,6.80
2023-02-26T17:09:50.525Z,6.50
2023-02-26T17:15:00.954Z,8.10
2023-02-26T17:20:09.826Z,8.30
2023-02-26T17:25:21.080Z,8.60
2023-02-26T17:30:32.606Z,8.90
2023-02-26T17:35:39.243Z,10.60
2023-02-26T17:40:47.817Z,10.50
2023-02-26T17:45:53.744Z,13.10
2023-02-26T17:50:59.964Z,15.90
2023-02-26T17:56:08.775Z,16.90
2023-02-26T18:01:14.620Z,19.20
2023-02-26T18:06:21.519Z,20.30
2023-02-26T18:11:28.295Z,25.50
2023-02-26T18:16:39.189Z,23.50
2023-02-26T18:21:46.370Z,22.20
2023-02-26T18:26:52.774Z,21.50
2023-02-26T18:32:00.654Z,19.30
2023-02-26T18:37:11.218Z,17.90
2023-02-26T18:42:23.118Z,14.30
2023-02-26T18:47:29.515Z,13.80
2023-02-26T18:52:36.140Z,13.80
2023-02-26T18:57:43.236Z,20.40
2023-02-26T19:02:50.169Z,18.60
2023-02-26T19:07:56.427Z,17.30
2023-02-26T19:13:02.936Z,18.10
2023-02-26T19:18:10.313Z,20.50
2023-02-26T19:23:16.032Z,19.20
2023-02-26T19:28:23.060Z,16.90
2023-02-26T19:33:29.258Z,19.70
2023-02-26T19:38:35.423Z,25.60
2023-02-26T19:43:41.726Z,30.00
2023-02-26T19:48:47.561Z,23.30
2023-02-26T19:53:53.541Z,19.50
2023-02-26T19:58:59.668Z,13.50
2023-02-26T20:04:06.180Z,13.70
2023-02-26T20:09:12.882Z,30.40
2023-02-26T20:14:19.548Z,23.30
2023-02-26T20:19:25.530Z,16.60
2023-02-26T20:24:33.040Z,12.30
2023-02-26T20:29:39.064Z,10.50
2023-02-26T20:34:45.398Z,10.90
2023-02-26T20:39:51.195Z,8.60
2023-02-26T20:44:57.257Z,8.50
2023-02-26T20:50:03.146Z,11.50
2023-02-26T20:55:10.942Z,11.60
2023-02-26T21:00:18.817Z,16.20
2023-02-26T21:05:26.904Z,11.90
2023-02-26T21:10:33.419Z,8.90
2023-02-26T21:15:40.343Z,7.10
2023-02-26T21:20:50.900Z,5.60
2023-02-26T21:25:57.073Z,6.40
2023-02-26T21:31:02.879Z,6.20
2023-02-26T21:36:11.909Z,6.10
2023-02-26T21:41:17.979Z,6.00
2023-02-26T21:46:24.116Z,6.00
2023-02-26T21:51:30.109Z,5.90
2023-02-26T21:56:36.301Z,5.60
2023-02-26T22:01:42.036Z,5.80
2023-02-26T22:06:47.837Z,5.40
2023-02-26T22:11:54.103Z,6.30
2023-02-26T22:16:59.945Z,7.10
2023-02-26T22:22:06.721Z,6.10
2023-02-26T22:27:13.114Z,7.00
2023-02-26T22:32:19.056Z,6.20
2023-02-26T22:37:25.042Z,6.30
2023-02-26T22:42:31.324Z,7.50
2023-02-26T22:47:37.112Z,6.50
2023-02-26T22:52:43.410Z,6.50
2023-02-26T22:57:49.584Z,6.70
2023-02-26T23:02:55.781Z,7.80
2023-02-26T23:08:01.552Z,6.60
2023-02-26T23:13:07.384Z,6.10
2023-02-26T23:18:13.322Z,5.40
2023-02-26T23:23:19.110Z,5.50
2023-02-26T23:28:25.505Z,6.00
2023-02-26T23:33:31.576Z,5.70
2023-02-26T23:38:37.749Z,8.40
2023-02-26T23:43:43.427Z,10.30
2023-02-26T23:48:49.012Z,9.20
2023-02-26T23:53:54.768Z,8.40
2023-02-26T23:59:01.202Z,6.90
